Time;durP1;ratioP1;P1;durP2;ratioP2;P2;SDS_P1;SDS_P2;PMS_P1;PMS_P2;Temp;Humidity;BMP_temperature;BMP_pressure;BME280_temperature;BME280_humidity;BME280_pressure;Samples;Min_cycle;Max_cycle;Signal;HPM_P1;HPM_P2
2023/07/02 00:00:19;;;;;;;1999.90;999.90;;;15.80;99.90;;;;;;6649055;89;20211;-78
2023/07/02 00:10:20;;;;;;;1999.90;999.90;;;15.80;99.90;;;;;;6659462;89;20620;-79
2023/07/02 00:20:20;;;;;;;1999.90;999.90;;;15.80;99.90;;;;;;6665606;89;20197;-78
2023/07/02 00:30:21;;;;;;;1999.90;999.90;;;15.90;99.90;;;;;;6658461;89;20209;-78
2023/07/02 00:40:22;;;;;;;1999.90;999.90;;;15.80;99.90;;;;;;6664456;89;20200;-78
2023/07/02 00:50:23;;;;;;;1999.90;999.90;;;15.70;99.90;;;;;;6666431;89;20193;-78
2023/07/02 01:00:23;;;;;;;1999.90;999.90;;;15.60;99.90;;;;;;6663261;89;20709;-77
2023/07/02 01:10:24;;;;;;;1999.90;999.90;;;15.40;99.90;;;;;;6661465;89;20180;-79
2023/07/02 01:20:26;;;;;;;1999.90;999.90;;;15.30;99.90;;;;;;6662648;89;20228;-79
2023/07/02 01:30:27;;;;;;;1999.90;999.90;;;15.10;99.90;;;;;;6658379;89;20180;-78
2023/07/02 01:40:28;;;;;;;1999.90;999.90;;;15.10;99.90;;;;;;6668545;89;20183;-79
2023/07/02 01:50:28;;;;;;;1999.90;999.90;;;15.00;99.90;;;;;;6667208;89;20378;-79
2023/07/02 02:00:29;;;;;;;1999.90;999.90;;;14.80;99.90;;;;;;6664824;89;20213;-80
2023/07/02 02:10:29;;;;;;;1999.90;999.90;;;14.90;99.90;;;;;;6670294;89;20284;-78
2023/07/02 02:20:30;;;;;;;1999.90;999.90;;;15.00;99.90;;;;;;6641908;89;20192;-77
2023/07/02 02:30:31;;;;;;;1999.90;999.90;;;15.00;99.90;;;;;;6647044;89;20187;-77
2023/07/02 02:40:31;;;;;;;1999.90;999.90;;;14.90;99.90;;;;;;6645964;89;20227;-77
2023/07/02 02:50:32;;;;;;;1999.90;999.90;;;15.10;99.90;;;;;;6645332;89;20199;-78
2023/07/02 03:00:32;;;;;;;1999.90;999.90;;;15.10;99.90;;;;;;6646231;89;20222;-77
2023/07/02 03:10:33;;;;;;;1999.90;999.90;;;15.10;99.90;;;;;;6665859;89;20200;-78
2023/07/02 03:20:33;;;;;;;1999.90;999.90;;;15.10;99.90;;;;;;6667729;89;20620;-77
2023/07/02 03:30:34;;;;;;;1999.90;999.90;;;15.20;99.90;;;;;;6662280;89;20213;-78
2023/07/02 03:40:34;;;;;;;1999.90;999.90;;;15.00;99.90;;;;;;6666294;89;20297;-79
2023/07/02 03:50:35;;;;;;;1999.90;999.90;;;15.00;99.90;;;;;;6665496;89;20185;-77
2023/07/02 04:00:35;;;;;;;1999.90;999.90;;;15.00;99.90;;;;;;6667621;89;20322;-78
2023/07/02 04:10:36;;;;;;;1999.90;999.90;;;14.90;99.90;;;;;;6666518;89;20205;-78
2023/07/02 04:20:38;;;;;;;1999.90;999.90;;;14.90;99.90;;;;;;6662814;89;20247;-77
2023/07/02 04:30:39;;;;;;;1999.90;999.90;;;15.20;99.90;;;;;;6660755;89;20653;-77
2023/07/02 04:40:41;;;;;;;1999.90;999.90;;;15.30;99.90;;;;;;6663942;89;20200;-78
2023/07/02 04:50:42;;;;;;;1999.90;999.90;;;15.30;99.90;;;;;;6661444;89;20217;-78
2023/07/02 05:00:42;;;;;;;1999.90;999.90;;;15.50;99.90;;;;;;6667068;89;20189;-80
2023/07/02 05:10:43;;;;;;;1999.90;999.90;;;15.60;99.90;;;;;;6670453;89;22647;-78
2023/07/02 05:20:43;;;;;;;1999.90;999.90;;;15.80;99.90;;;;;;6654427;89;20824;-78
2023/07/02 05:30:44;;;;;;;1999.90;999.90;;;15.90;99.90;;;;;;6649127;89;20261;-78
2023/07/02 05:40:45;;;;;;;1999.90;999.90;;;16.10;99.90;;;;;;6652141;89;20186;-77
2023/07/02 05:50:46;;;;;;;1999.90;999.90;;;16.30;99.90;;;;;;6652826;89;20203;-77
2023/07/02 06:00:49;;;;;;;1999.90;999.90;;;16.50;99.90;;;;;;6654872;89;20258;-77
2023/07/02 06:10:50;;;;;;;1999.90;999.90;;;16.70;99.90;;;;;;6656001;89;20257;-78
2023/07/02 06:20:50;;;;;;;1999.90;999.90;;;17.00;99.90;;;;;;6655259;89;20215;-78
2023/07/02 06:30:51;;;;;;;1999.90;999.90;;;17.20;99.90;;;;;;6652028;89;20234;-79
2023/07/02 06:40:51;;;;;;;1999.90;999.90;;;17.40;99.90;;;;;;6654971;89;20200;-79
2023/07/02 06:50:52;;;;;;;1999.90;999.90;;;17.60;99.90;;;;;;6653993;89;20748;-78
2023/07/02 07:00:52;;;;;;;1999.90;999.90;;;17.90;99.90;;;;;;6655266;89;20200;-78
2023/07/02 07:10:53;;;;;;;1999.90;999.90;;;18.20;99.90;;;;;;6654509;89;20206;-79
2023/07/02 07:20:53;;;;;;;1999.90;999.90;;;18.40;99.90;;;;;;6655356;89;20191;-79
2023/07/02 07:30:54;;;;;;;1999.90;999.90;;;18.60;99.90;;;;;;6655585;89;20221;-79
2023/07/02 07:40:54;;;;;;;1999.90;999.90;;;18.60;99.90;;;;;;6651078;89;20209;-79
2023/07/02 07:50:55;;;;;;;1999.90;999.90;;;18.80;99.90;;;;;;6661592;89;22396;-80
2023/07/02 08:00:55;;;;;;;1999.90;999.90;;;19.40;99.90;;;;;;6662834;89;20234;-79
2023/07/02 08:10:56;;;;;;;1999.90;999.90;;;20.60;99.90;;;;;;6666454;89;20235;-78
2023/07/02 08:20:56;;;;;;;1999.90;999.90;;;21.10;99.90;;;;;;6659148;89;20290;-78
2023/07/02 08:30:57;;;;;;;1999.90;999.90;;;22.30;99.90;;;;;;6652952;89;21056;-78
2023/07/02 08:40:57;;;;;;;1999.90;999.90;;;22.50;99.90;;;;;;6671305;89;20372;-78
2023/07/02 08:50:58;;;;;;;1999.90;999.90;;;21.90;99.30;;;;;;6654032;89;20189;-79
2023/07/02 09:01:10;;;;;;;1999.90;999.90;;;22.00;99.90;;;;;;6654192;89;20264;-79
2023/07/02 09:11:12;;;;;;;1999.90;999.90;;;21.60;99.90;;;;;;6654650;89;20237;-78
2023/07/02 09:21:13;;;;;;;1999.90;999.90;;;21.50;99.90;;;;;;6651982;89;20192;-79
2023/07/02 09:31:13;;;;;;;1999.90;999.90;;;20.90;99.90;;;;;;6653045;89;20653;-78
2023/07/02 09:41:14;;;;;;;1999.90;999.90;;;20.40;99.90;;;;;;6654665;89;20610;-80
2023/07/02 09:51:15;;;;;;;1999.90;999.90;;;20.60;99.90;;;;;;6656183;89;20192;-76
2023/07/02 10:01:15;;;;;;;1999.90;999.90;;;20.50;99.90;;;;;;6643149;89;20325;-77
2023/07/02 10:11:16;;;;;;;1999.90;999.90;;;20.80;99.90;;;;;;6643112;89;20211;-76
2023/07/02 10:21:17;;;;;;;1999.90;999.90;;;22.30;99.90;;;;;;6651098;89;20223;-77
2023/07/02 10:31:20;;;;;;;1999.90;999.90;;;23.60;99.90;;;;;;6648765;89;20583;-79
2023/07/02 10:41:26;;;;;;;1999.90;999.90;;;22.00;99.90;;;;;;6663825;89;20196;-80
2023/07/02 10:51:28;;;;;;;1999.90;999.90;;;22.20;99.90;;;;;;6687135;89;20189;-81
2023/07/02 11:01:31;;;;;;;1999.90;999.90;;;22.20;99.90;;;;;;6682731;89;20188;-81
2023/07/02 11:11:32;;;;;;;1999.90;999.90;;;21.10;99.90;;;;;;6665526;89;20604;-81
2023/07/02 11:21:32;;;;;;;1999.90;999.90;;;22.70;99.90;;;;;;6680160;89;20196;-79
2023/07/02 11:31:33;;;;;;;1999.90;999.90;;;23.80;96.80;;;;;;6670986;89;20238;-79
2023/07/02 11:41:37;;;;;;;1999.90;999.90;;;24.20;96.50;;;;;;6663050;89;20180;-79
2023/07/02 11:51:48;;;;;;;1999.90;999.90;;;23.30;95.30;;;;;;6661646;89;20692;-79
2023/07/02 12:01:48;;;;;;;1999.90;999.90;;;22.70;96.30;;;;;;6660238;89;20642;-78
2023/07/02 12:11:49;;;;;;;1999.90;999.90;;;23.80;94.80;;;;;;6656380;89;20207;-80
2023/07/02 12:21:49;;;;;;;1999.90;999.90;;;24.50;93.70;;;;;;6658506;89;20188;-79
2023/07/02 12:31:50;;;;;;;1999.90;999.90;;;24.20;94.60;;;;;;6653217;89;20581;-78
2023/07/02 12:41:50;;;;;;;1999.90;999.90;;;23.70;95.20;;;;;;6660760;89;20731;-80
2023/07/02 12:51:51;;;;;;;1999.90;999.90;;;23.90;94.80;;;;;;6653716;89;20196;-77
2023/07/02 13:01:51;;;;;;;1999.90;999.90;;;25.60;93.40;;;;;;6648407;89;20192;-77
2023/07/02 13:11:52;;;;;;;1999.90;999.90;;;25.00;93.60;;;;;;6651085;89;20320;-78
2023/07/02 13:21:52;;;;;;;1999.90;999.90;;;25.00;92.90;;;;;;6652779;89;20183;-78
2023/07/02 13:31:53;;;;;;;1999.90;999.90;;;25.20;92.10;;;;;;6648318;89;20694;-79
2023/07/02 13:41:53;;;;;;;1999.90;999.90;;;24.50;93.30;;;;;;6644137;89;20228;-78
2023/07/02 13:51:54;;;;;;;1999.90;999.90;;;25.20;91.80;;;;;;6648804;89;20197;-79
2023/07/02 14:01:54;;;;;;;1999.90;999.90;;;24.50;92.80;;;;;;6651249;89;20203;-79
2023/07/02 14:11:55;;;;;;;1999.90;999.90;;;23.80;93.10;;;;;;6650636;89;20184;-79
2023/07/02 14:21:56;;;;;;;1999.90;999.90;;;23.90;91.70;;;;;;6651089;89;20219;-79
2023/07/02 14:31:56;;;;;;;1999.90;999.90;;;25.20;90.40;;;;;;6652078;89;20244;-79
2023/07/02 14:41:57;;;;;;;1999.90;999.90;;;24.40;90.90;;;;;;6656911;89;20213;-79
2023/07/02 14:51:57;;;;;;;1999.90;999.90;;;26.20;88.10;;;;;;6652316;89;20601;-78
2023/07/02 15:01:58;;;;;;;1999.90;999.90;;;25.10;88.80;;;;;;6659434;89;20219;-79
2023/07/02 15:11:58;;;;;;;1999.90;999.90;;;24.80;88.00;;;;;;6660056;89;20208;-81
2023/07/02 15:21:59;;;;;;;1999.90;999.90;;;24.50;87.80;;;;;;6652325;89;20601;-78
2023/07/02 15:31:59;;;;;;;1999.90;999.90;;;25.30;88.30;;;;;;6655764;89;20640;-79
2023/07/02 15:42:00;;;;;;;1999.90;999.90;;;25.60;86.80;;;;;;6649748;89;20188;-76
2023/07/02 15:52:00;;;;;;;1999.90;999.90;;;26.40;85.60;;;;;;6647567;89;20356;-76
2023/07/02 16:02:01;;;;;;;1999.90;999.90;;;26.20;85.10;;;;;;6647697;89;20188;-77
2023/07/02 16:12:02;;;;;;;1999.90;999.90;;;24.60;86.50;;;;;;6648816;89;20625;-78
2023/07/02 16:22:02;;;;;;;1999.90;999.90;;;24.90;86.00;;;;;;6644294;89;20229;-77
2023/07/02 16:32:04;;;;;;;1999.90;999.90;;;25.50;86.20;;;;;;6650296;89;20185;-78
2023/07/02 16:42:05;;;;;;;1999.90;999.90;;;25.30;86.40;;;;;;6648901;89;20687;-77
2023/07/02 16:52:06;;;;;;;1999.90;999.90;;;25.00;87.70;;;;;;6649216;89;20218;-77
2023/07/02 17:02:08;;;;;;;1999.90;999.90;;;24.40;86.40;;;;;;6647834;89;20192;-77
2023/07/02 17:12:13;;;;;;;1999.90;999.90;;;23.80;88.10;;;;;;6648071;89;20218;-76
2023/07/02 17:22:22;;;;;;;1999.90;999.90;;;23.60;89.50;;;;;;6643896;89;20726;-77
2023/07/02 17:32:24;;;;;;;1999.90;999.90;;;23.40;90.00;;;;;;6643440;89;20213;-77
2023/07/02 17:42:24;;;;;;;1999.90;999.90;;;23.00;90.80;;;;;;6647833;89;20242;-79
2023/07/02 17:52:25;;;;;;;1999.90;999.90;;;22.90;90.70;;;;;;6649002;89;20704;-76
2023/07/02 18:02:25;;;;;;;1999.90;999.90;;;22.90;90.90;;;;;;6644771;89;20276;-79
2023/07/02 18:12:28;;;;;;;1999.90;999.90;;;22.70;91.50;;;;;;6648346;89;20260;-78
2023/07/02 18:22:28;;;;;;;1999.90;999.90;;;22.60;91.70;;;;;;6647169;89;20659;-75
2023/07/02 18:32:29;;;;;;;1999.90;999.90;;;22.50;91.70;;;;;;6642334;89;20239;-76
2023/07/02 18:42:30;;;;;;;1999.90;999.90;;;22.30;92.50;;;;;;6644704;89;20705;-76
2023/07/02 18:52:31;;;;;;;1999.90;999.90;;;22.20;92.40;;;;;;6642873;89;20241;-78
2023/07/02 19:02:32;;;;;;;1999.90;999.90;;;22.00;93.00;;;;;;6647112;89;20253;-77
2023/07/02 19:12:33;;;;;;;1999.90;999.90;;;21.80;93.40;;;;;;6645363;89;20241;-79
2023/07/02 19:22:33;;;;;;;1999.90;999.90;;;21.60;93.80;;;;;;6649908;89;20329;-78
2023/07/02 19:32:36;;;;;;;1999.90;999.90;;;21.30;94.50;;;;;;6649969;89;20337;-79
2023/07/02 19:42:37;;;;;;;1999.90;999.90;;;21.20;95.10;;;;;;6651009;89;20206;-78
2023/07/02 19:52:37;;;;;;;1999.90;999.90;;;21.00;95.20;;;;;;6649292;89;20675;-78
2023/07/02 20:02:40;;;;;;;1999.90;999.90;;;20.80;95.10;;;;;;6652559;89;20723;-78
2023/07/02 20:12:41;;;;;;;1999.90;999.90;;;20.70;94.80;;;;;;6651736;89;20695;-79
2023/07/02 20:22:43;;;;;;;1999.90;999.90;;;20.70;94.60;;;;;;6656313;89;20212;-78
2023/07/02 20:32:43;;;;;;;1999.90;999.90;;;20.60;94.70;;;;;;6652262;89;20244;-79
2023/07/02 20:42:44;;;;;;;1999.90;999.90;;;20.50;94.30;;;;;;6650878;89;20214;-80
2023/07/02 20:52:45;;;;;;;1999.90;999.90;;;20.40;94.60;;;;;;6649507;89;20247;-77
2023/07/02 21:02:45;;;;;;;1999.90;999.90;;;20.30;95.30;;;;;;6658743;89;20314;-77
2023/07/02 21:12:46;;;;;;;1999.90;999.90;;;19.90;96.50;;;;;;6653064;89;20228;-77
2023/07/02 21:22:48;;;;;;;1999.90;999.90;;;19.70;96.80;;;;;;6649189;89;20201;-78
2023/07/02 21:32:49;;;;;;;1999.90;999.90;;;19.70;97.20;;;;;;6643652;89;20205;-77
2023/07/02 21:42:49;;;;;;;1999.90;999.90;;;19.60;97.60;;;;;;6648353;89;20602;-76
2023/07/02 21:52:50;;;;;;;1999.90;999.90;;;19.50;98.50;;;;;;6646560;89;20255;-77
2023/07/02 22:02:50;;;;;;;1999.90;999.90;;;19.20;99.10;;;;;;6635287;89;20252;-77
2023/07/02 22:12:50;;;;;;;1999.90;999.90;;;19.00;99.10;;;;;;6638317;89;20254;-78
2023/07/02 22:22:51;;;;;;;1999.90;999.90;;;18.70;97.50;;;;;;6637935;89;20197;-77
2023/07/02 22:32:51;;;;;;;1999.90;999.90;;;18.30;95.70;;;;;;6639277;89;20266;-77
2023/07/02 22:42:52;;;;;;;1999.90;999.90;;;18.10;95.70;;;;;;6642886;89;20353;-76
2023/07/02 22:52:53;;;;;;;1999.90;999.90;;;17.70;96.30;;;;;;6646104;89;20228;-76
2023/07/02 23:02:53;;;;;;;1999.90;999.90;;;17.50;96.70;;;;;;6646131;89;20188;-76
2023/07/02 23:12:54;;;;;;;1999.90;999.90;;;17.20;97.70;;;;;;6649604;89;20269;-76
2023/07/02 23:22:54;;;;;;;1999.90;999.90;;;17.00;98.00;;;;;;6715019;77;20309;-75
2023/07/02 23:32:55;;;;;;;1999.90;999.90;;;16.90;98.30;;;;;;6701352;88;20309;-77
2023/07/02 23:42:55;;;;;;;1999.90;999.90;;;16.80;98.80;;;;;;6700673;88;20199;-76
2023/07/02 23:52:56;;;;;;;1999.90;999.90;;;16.90;98.70;;;;;;6697343;88;20206;-76
